Terminal Aerodrome Forecast
Issued by NWS Wichita, KS

Home | Current Version | Previous Version | Text Only | Print | Product List | Glossary On
Versions: 1 2 3 4 5 6 7 8 9 10 11 12 13 14 15 16 17
000
FTUS43 KICT 232000 AAA
TAFICT
TAF AMD
KICT 232048Z 2321/2418 03010KT P6SM SCT100 BKN250
     FM240000 10005KT P6SM SCT250
     FM240900 13007KT 5SM BR SKC
     FM241500 16014G20KT P6SM SKC=

USA.gov is the U.S. government's official web portal to all federal, state and local government web resources and services.